Time,TemperatureF,DewpointF,PressureIn,WindDirection,WindDirectionDegrees,WindSpeedMPH,WindSpeedGustMPH,Humidity,HourlyPrecipIn,Conditions,Clouds,dailyrainin,SoftwareType,DateUTC
2013-02-04 00:03:00,40.0,20.0,-100.00,North,10,1.0,5.0,45,-99.99,,,-99.99,,2013-02-04 05:03:00,
2013-02-04 00:12:00,39.0,20.0,-100.00,ENE,75,1.0,1.0,46,-99.99,,,-99.99,,2013-02-04 05:12:00,
2013-02-04 00:22:00,38.0,20.0,-100.00,East,80,1.0,1.0,48,-99.99,,,-99.99,,2013-02-04 05:22:00,
2013-02-04 00:33:00,38.0,20.0,-100.00,East,85,2.0,4.0,49,-99.99,,,-99.99,,2013-02-04 05:33:00,
2013-02-04 00:42:00,37.0,20.0,-100.00,East,80,1.0,5.0,50,-99.99,,,-99.99,,2013-02-04 05:42:00,
2013-02-04 00:52:00,37.0,20.0,-100.00,East,90,1.0,5.0,50,-99.99,,,-99.99,,2013-02-04 05:52:00,
2013-02-04 01:02:00,37.0,20.0,-100.00,East,80,1.0,6.0,51,-99.99,,,-99.99,,2013-02-04 06:02:00,
2013-02-04 01:11:00,36.0,20.0,-100.00,East,85,3.0,6.0,52,-99.99,,,-99.99,,2013-02-04 06:11:00,
2013-02-04 01:21:00,36.0,20.0,-100.00,East,80,2.0,6.0,53,-99.99,,,-99.99,,2013-02-04 06:21:00,
2013-02-04 01:32:00,35.0,20.0,-100.00,ESE,115,2.0,4.0,54,-99.99,,,-99.99,,2013-02-04 06:32:00,
2013-02-04 01:42:00,35.0,21.0,-100.00,East,95,1.0,5.0,55,-99.99,,,-99.99,,2013-02-04 06:42:00,
2013-02-04 01:52:00,35.0,21.0,-100.00,East,95,4.0,6.0,56,-99.99,,,-99.99,,2013-02-04 06:52:00,
2013-02-04 02:02:00,35.0,20.0,-100.00,East,90,2.0,7.0,56,-99.99,,,-99.99,,2013-02-04 07:02:00,
2013-02-04 02:11:00,34.0,21.0,-100.00,ENE,75,2.0,6.0,57,-99.99,,,-99.99,,2013-02-04 07:11:00,
2013-02-04 02:21:00,34.0,20.0,-100.00,ESE,105,2.0,6.0,57,-99.99,,,-99.99,,2013-02-04 07:21:00,
2013-02-04 02:32:00,34.0,21.0,-100.00,ESE,110,1.0,6.0,58,-99.99,,,-99.99,,2013-02-04 07:32:00,
2013-02-04 02:42:00,34.0,21.0,-100.00,East,100,1.0,3.0,58,-99.99,,,-99.99,,2013-02-04 07:42:00,
2013-02-04 02:52:00,34.0,21.0,-100.00,East,100,1.0,3.0,58,-99.99,,,-99.99,,2013-02-04 07:52:00,
2013-02-04 03:01:00,33.0,20.0,-100.00,ENE,65,1.0,2.0,58,-99.99,,,-99.99,,2013-02-04 08:01:00,
2013-02-04 03:11:00,33.0,20.0,-100.00,NNW,345,0.0,4.0,58,-99.99,,,-99.99,,2013-02-04 08:11:00,
2013-02-04 03:21:00,33.0,20.0,-100.00,NNE,15,1.0,4.0,58,-99.99,,,-99.99,,2013-02-04 08:21:00,
2013-02-04 03:32:00,33.0,20.0,-100.00,East,85,1.0,5.0,58,-99.99,,,-99.99,,2013-02-04 08:32:00,
2013-02-04 03:42:00,33.0,20.0,-100.00,East,80,1.0,5.0,58,-99.99,,,-99.99,,2013-02-04 08:42:00,
2013-02-04 03:52:00,33.0,20.0,-100.00,SSW,195,0.0,3.0,59,-99.99,,,-99.99,,2013-02-04 08:52:00,
2013-02-04 04:02:00,33.0,20.0,-100.00,West,260,1.0,3.0,60,-99.99,,,-99.99,,2013-02-04 09:02:00,
2013-02-04 04:11:00,33.0,21.0,-100.00,WSW,245,2.0,4.0,61,-99.99,,,-99.99,,2013-02-04 09:11:00,
2013-02-04 04:21:00,32.0,21.0,-100.00,North,10,1.0,2.0,62,-99.99,,,-99.99,,2013-02-04 09:21:00,
2013-02-04 04:32:00,32.0,21.0,-100.00,WNW,285,0.0,2.0,63,-99.99,,,-99.99,,2013-02-04 09:32:00,
2013-02-04 04:42:00,32.0,21.0,-100.00,West,260,1.0,3.0,64,-99.99,,,-99.99,,2013-02-04 09:42:00,
2013-02-04 04:52:00,31.0,21.0,-100.00,East,100,0.0,1.0,66,-99.99,,,-99.99,,2013-02-04 09:52:00,
2013-02-04 05:01:00,31.0,22.0,-100.00,North,0,1.0,2.0,67,-99.99,,,-99.99,,2013-02-04 10:01:00,
2013-02-04 05:12:00,31.0,22.0,-100.00,West,265,0.0,1.0,68,-99.99,,,-99.99,,2013-02-04 10:12:00,
2013-02-04 05:21:00,31.0,22.0,-100.00,West,275,0.0,1.0,69,-99.99,,,-99.99,,2013-02-04 10:21:00,
2013-02-04 05:32:00,31.0,22.0,-100.00,North,5,0.0,1.0,70,-99.99,,,-99.99,,2013-02-04 10:32:00,
2013-02-04 05:42:00,31.0,22.0,-100.00,NE,55,1.0,3.0,70,-99.99,,,-99.99,,2013-02-04 10:42:00,
2013-02-04 05:51:00,31.0,22.0,-100.00,East,90,0.0,1.0,71,-99.99,,,-99.99,,2013-02-04 10:51:00,
2013-02-04 06:02:00,31.0,23.0,-100.00,SE,145,0.0,2.0,72,-99.99,,,-99.99,,2013-02-04 11:02:00,
2013-02-04 06:11:00,30.0,23.0,-100.00,SE,135,0.0,3.0,74,-99.99,,,-99.99,,2013-02-04 11:11:00,
2013-02-04 06:22:00,30.0,23.0,-100.00,ENE,60,1.0,3.0,75,-99.99,,,-99.99,,2013-02-04 11:22:00,
2013-02-04 06:33:00,30.0,24.0,-100.00,WNW,295,0.0,0.0,76,-99.99,,,-99.99,,2013-02-04 11:33:00,
2013-02-04 06:42:00,31.0,23.0,-100.00,East,90,2.0,4.0,74,-99.99,,,-99.99,,2013-02-04 11:42:00,
2013-02-04 06:52:00,31.0,23.0,-100.00,NNW,340,0.0,3.0,71,-99.99,,,-99.99,,2013-02-04 11:52:00,
2013-02-04 07:02:00,32.0,23.0,-100.00,South,185,1.0,4.0,71,-99.99,,,-99.99,,2013-02-04 12:02:00,
2013-02-04 07:12:00,31.0,23.0,-100.00,NW,310,0.0,2.0,71,-99.99,,,-99.99,,2013-02-04 12:12:00,
2013-02-04 07:22:00,31.0,23.0,-100.00,SW,220,0.0,1.0,71,-99.99,,,-99.99,,2013-02-04 12:22:00,
2013-02-04 07:32:00,31.0,23.0,-100.00,SSE,165,1.0,3.0,72,-99.99,,,-99.99,,2013-02-04 12:32:00,
2013-02-04 07:42:00,32.0,23.0,-100.00,SE,130,1.0,4.0,71,-99.99,,,-99.99,,2013-02-04 12:42:00,
2013-02-04 07:52:00,32.0,23.0,-100.00,SE,130,1.0,4.0,71,-99.99,,,-99.99,,2013-02-04 12:52:00,
2013-02-04 08:03:00,32.0,24.0,-100.00,North,10,1.0,4.0,70,-99.99,,,-99.99,,2013-02-04 13:03:00,
2013-02-04 08:12:00,32.0,24.0,-100.00,NW,325,2.0,4.0,71,-99.99,,,-99.99,,2013-02-04 13:12:00,
2013-02-04 08:22:00,33.0,24.0,-100.00,SSW,200,0.0,4.0,71,-99.99,,,-99.99,,2013-02-04 13:22:00,
2013-02-04 08:33:00,33.0,24.0,-100.00,West,270,2.0,4.0,70,-99.99,,,-99.99,,2013-02-04 13:33:00,
2013-02-04 08:42:00,33.0,24.0,-100.00,NW,310,2.0,4.0,69,-99.99,,,-99.99,,2013-02-04 13:42:00,
2013-02-04 08:52:00,34.0,24.0,-100.00,NW,320,4.0,5.0,66,-99.99,,,-99.99,,2013-02-04 13:52:00,
2013-02-04 09:03:00,34.0,24.0,-100.00,West,265,1.0,6.0,67,-99.99,,,-99.99,,2013-02-04 14:03:00,
2013-02-04 09:12:00,34.0,24.0,-100.00,West,280,2.0,4.0,67,-99.99,,,-99.99,,2013-02-04 14:12:00,
2013-02-04 09:23:00,34.0,24.0,-100.00,WNW,295,3.0,5.0,66,-99.99,,,-99.99,,2013-02-04 14:23:00,
2013-02-04 09:33:00,35.0,25.0,-100.00,SSW,205,0.0,2.0,66,-99.99,,,-99.99,,2013-02-04 14:33:00,
2013-02-04 09:42:00,35.0,24.0,-100.00,East,100,0.0,2.0,64,-99.99,,,-99.99,,2013-02-04 14:42:00,
2013-02-04 09:52:00,35.0,24.0,-100.00,East,100,0.0,2.0,64,-99.99,,,-99.99,,2013-02-04 14:52:00,
2013-02-04 10:03:00,36.0,25.0,-100.00,SSW,210,0.0,3.0,63,-99.99,,,-99.99,,2013-02-04 15:03:00,
2013-02-04 10:13:00,39.0,26.0,-100.00,WNW,295,1.0,2.0,61,-99.99,,,-99.99,,2013-02-04 15:13:00,
2013-02-04 10:24:00,41.0,27.0,-100.00,NW,305,2.0,4.0,58,-99.99,,,-99.99,,2013-02-04 15:24:00,
2013-02-04 10:33:00,40.0,26.0,-100.00,SSW,200,1.0,3.0,56,-99.99,,,-99.99,,2013-02-04 15:33:00,
2013-02-04 10:40:00,41.0,26.0,-100.00,NNW,330,4.0,5.0,55,-99.99,,,-99.99,,2013-02-04 15:40:00,
2013-02-04 10:43:00,40.0,26.0,-100.00,NNE,30,0.0,3.0,56,-99.99,,,-99.99,,2013-02-04 15:43:00,
2013-02-04 10:52:00,40.0,26.0,-100.00,NW,320,5.0,8.0,55,-99.99,,,-99.99,,2013-02-04 15:52:00,
2013-02-04 11:03:00,40.0,25.0,-100.00,NE,35,1.0,8.0,55,-99.99,,,-99.99,,2013-02-04 16:03:00,
2013-02-04 11:11:00,41.0,26.0,-100.00,NNW,330,4.0,5.0,55,-99.99,,,-99.99,,2013-02-04 16:11:00,
2013-02-04 11:23:00,41.0,26.0,-100.00,NNW,330,4.0,5.0,55,-99.99,,,-99.99,,2013-02-04 16:23:00,
2013-02-04 11:33:00,41.0,26.0,-100.00,NNW,330,4.0,5.0,55,-99.99,,,-99.99,,2013-02-04 16:33:00,
2013-02-04 12:42:00,46.0,28.0,-100.00,West,275,2.0,4.0,48,-99.99,,,-99.99,,2013-02-04 17:42:00,
2013-02-04 12:52:00,48.0,28.0,-100.00,NNW,345,1.0,4.0,46,-99.99,,,-99.99,,2013-02-04 17:52:00,
2013-02-04 13:03:00,48.0,28.0,-100.00,West,265,1.0,4.0,45,-99.99,,,-99.99,,2013-02-04 18:03:00,
2013-02-04 13:12:00,51.0,29.0,-100.00,North,0,1.0,4.0,42,-99.99,,,-99.99,,2013-02-04 18:12:00,
2013-02-04 13:22:00,51.0,27.0,-100.00,NNW,335,3.0,6.0,39,-99.99,,,-99.99,,2013-02-04 18:22:00,
2013-02-04 13:32:00,53.0,27.0,-100.00,WSW,240,4.0,6.0,37,-99.99,,,-99.99,,2013-02-04 18:32:00,
2013-02-04 13:42:00,52.0,26.0,-100.00,WSW,245,2.0,5.0,36,-99.99,,,-99.99,,2013-02-04 18:42:00,
2013-02-04 13:52:00,52.0,25.0,-100.00,SSE,165,5.0,8.0,35,-99.99,,,-99.99,,2013-02-04 18:52:00,
2013-02-04 14:02:00,50.0,24.0,-100.00,South,175,4.0,9.0,35,-99.99,,,-99.99,,2013-02-04 19:02:00,
2013-02-04 14:11:00,50.0,24.0,-100.00,SW,225,4.0,10.0,36,-99.99,,,-99.99,,2013-02-04 19:11:00,
2013-02-04 14:22:00,50.0,24.0,-100.00,SW,225,4.0,10.0,36,-99.99,,,-99.99,,2013-02-04 19:22:00,
2013-02-04 14:32:00,50.0,24.0,-100.00,WSW,250,3.0,9.0,36,-99.99,,,-99.99,,2013-02-04 19:32:00,
2013-02-04 14:42:00,50.0,24.0,-100.00,SW,230,5.0,11.0,36,-99.99,,,-99.99,,2013-02-04 19:42:00,
2013-02-04 14:52:00,50.0,25.0,-100.00,West,265,5.0,8.0,37,-99.99,,,-99.99,,2013-02-04 19:52:00,
2013-02-04 15:02:00,50.0,25.0,-100.00,SSW,195,4.0,8.0,37,-99.99,,,-99.99,,2013-02-04 20:02:00,
2013-02-04 15:12:00,50.0,25.0,-100.00,WSW,245,4.0,9.0,37,-99.99,,,-99.99,,2013-02-04 20:12:00,
2013-02-04 15:22:00,49.0,24.0,-100.00,WSW,245,4.0,7.0,36,-99.99,,,-99.99,,2013-02-04 20:22:00,
2013-02-04 15:32:00,49.0,24.0,-100.00,WSW,245,4.0,7.0,36,-99.99,,,-99.99,,2013-02-04 20:32:00,
2013-02-04 15:42:00,49.0,24.0,-100.00,SSW,195,2.0,10.0,37,-99.99,,,-99.99,,2013-02-04 20:42:00,
2013-02-04 15:52:00,49.0,24.0,-100.00,SW,220,4.0,8.0,37,-99.99,,,-99.99,,2013-02-04 20:52:00,
2013-02-04 16:03:00,49.0,24.0,-100.00,WSW,240,5.0,8.0,37,-99.99,,,-99.99,,2013-02-04 21:03:00,
2013-02-04 16:12:00,49.0,24.0,-100.00,SW,225,3.0,8.0,37,-99.99,,,-99.99,,2013-02-04 21:12:00,
2013-02-04 16:23:00,49.0,24.0,-100.00,SW,225,3.0,8.0,37,-99.99,,,-99.99,,2013-02-04 21:23:00,
2013-02-04 16:32:00,49.0,24.0,-100.00,WSW,245,4.0,9.0,37,-99.99,,,-99.99,,2013-02-04 21:32:00,
2013-02-04 16:43:00,49.0,24.0,-100.00,WSW,240,6.0,8.0,37,-99.99,,,-99.99,,2013-02-04 21:43:00,
2013-02-04 16:52:00,49.0,24.0,-100.00,SW,235,6.0,10.0,37,-99.99,,,-99.99,,2013-02-04 21:52:00,
2013-02-04 17:03:00,49.0,24.0,-100.00,WSW,255,4.0,7.0,37,-99.99,,,-99.99,,2013-02-04 22:03:00,
2013-02-04 17:12:00,49.0,24.0,-100.00,WSW,240,4.0,9.0,37,-99.99,,,-99.99,,2013-02-04 22:12:00,
2013-02-04 17:21:00,49.0,24.0,-100.00,WSW,245,4.0,9.0,38,-99.99,,,-99.99,,2013-02-04 22:21:00,
2013-02-04 17:32:00,49.0,24.0,-100.00,WSW,255,5.0,8.0,38,-99.99,,,-99.99,,2013-02-04 22:32:00,
2013-02-04 17:42:00,49.0,24.0,-100.00,WSW,255,2.0,10.0,38,-99.99,,,-99.99,,2013-02-04 22:42:00,
2013-02-04 17:52:00,49.0,24.0,-100.00,WSW,255,2.0,10.0,38,-99.99,,,-99.99,,2013-02-04 22:52:00,
2013-02-04 18:02:00,48.0,23.0,-100.00,WSW,240,7.0,13.0,38,-99.99,,,-99.99,,2013-02-04 23:02:00,
2013-02-04 18:11:00,48.0,24.0,-100.00,WSW,250,3.0,6.0,39,-99.99,,,-99.99,,2013-02-04 23:11:00,
2013-02-04 18:22:00,47.0,24.0,-100.00,WSW,245,4.0,8.0,40,-99.99,,,-99.99,,2013-02-04 23:22:00,
2013-02-04 18:32:00,47.0,24.0,-100.00,WSW,255,2.0,9.0,40,-99.99,,,-99.99,,2013-02-04 23:32:00,
2013-02-04 18:42:00,46.0,24.0,-100.00,WSW,250,4.0,6.0,41,-99.99,,,-99.99,,2013-02-04 23:42:00,
2013-02-04 18:52:00,46.0,24.0,-100.00,SSW,205,3.0,6.0,42,-99.99,,,-99.99,,2013-02-04 23:52:00,
2013-02-04 19:02:00,45.0,24.0,-100.00,SSW,195,2.0,6.0,43,-99.99,,,-99.99,,2013-02-05 00:02:00,
2013-02-04 19:11:00,45.0,24.0,-100.00,SW,230,3.0,6.0,44,-99.99,,,-99.99,,2013-02-05 00:11:00,
2013-02-04 19:22:00,45.0,25.0,-100.00,SSW,200,2.0,6.0,45,-99.99,,,-99.99,,2013-02-05 00:22:00,
2013-02-04 19:32:00,45.0,25.0,-100.00,SW,230,4.0,6.0,45,-99.99,,,-99.99,,2013-02-05 00:32:00,
2013-02-04 19:42:00,44.0,25.0,-100.00,WSW,240,4.0,6.0,46,-99.99,,,-99.99,,2013-02-05 00:42:00,
2013-02-04 19:52:00,44.0,25.0,-100.00,WSW,240,3.0,4.0,47,-99.99,,,-99.99,,2013-02-05 00:52:00,
2013-02-04 20:02:00,44.0,25.0,-100.00,SW,220,1.0,4.0,48,-99.99,,,-99.99,,2013-02-05 01:02:00,
2013-02-04 20:12:00,43.0,25.0,-100.00,SW,235,4.0,6.0,48,-99.99,,,-99.99,,2013-02-05 01:12:00,
2013-02-04 20:22:00,43.0,26.0,-100.00,WSW,240,2.0,6.0,50,-99.99,,,-99.99,,2013-02-05 01:22:00,
2013-02-04 20:32:00,42.0,25.0,-100.00,SW,235,4.0,6.0,50,-99.99,,,-99.99,,2013-02-05 01:32:00,
2013-02-04 20:42:00,42.0,25.0,-100.00,West,275,1.0,4.0,51,-99.99,,,-99.99,,2013-02-05 01:42:00,
2013-02-04 20:52:00,42.0,26.0,-100.00,SW,230,2.0,4.0,53,-99.99,,,-99.99,,2013-02-05 01:52:00,
2013-02-04 21:02:00,42.0,26.0,-100.00,WNW,285,0.0,4.0,53,-99.99,,,-99.99,,2013-02-05 02:02:00,
2013-02-04 21:11:00,41.0,26.0,-100.00,SW,225,0.0,2.0,54,-99.99,,,-99.99,,2013-02-05 02:11:00,
2013-02-04 21:22:00,42.0,26.0,-100.00,SW,215,1.0,2.0,54,-99.99,,,-99.99,,2013-02-05 02:22:00,
2013-02-04 21:32:00,42.0,26.0,-100.00,SSW,205,1.0,2.0,54,-99.99,,,-99.99,,2013-02-05 02:32:00,
2013-02-04 21:42:00,41.0,26.0,-100.00,WSW,250,1.0,2.0,55,-99.99,,,-99.99,,2013-02-05 02:42:00,
2013-02-04 21:52:00,41.0,27.0,-100.00,SSW,205,1.0,4.0,56,-99.99,,,-99.99,,2013-02-05 02:52:00,
2013-02-04 22:02:00,41.0,27.0,-100.00,NW,305,0.0,4.0,56,-99.99,,,-99.99,,2013-02-05 03:02:00,
2013-02-04 22:11:00,41.0,27.0,-100.00,SSW,195,1.0,2.0,56,-99.99,,,-99.99,,2013-02-05 03:11:00,
2013-02-04 22:22:00,41.0,27.0,-100.00,West,280,1.0,3.0,57,-99.99,,,-99.99,,2013-02-05 03:22:00,
2013-02-04 22:32:00,40.0,27.0,-100.00,SSE,150,0.0,1.0,58,-99.99,,,-99.99,,2013-02-05 03:32:00,
2013-02-04 22:42:00,40.0,27.0,-100.00,SSE,155,0.0,1.0,59,-99.99,,,-99.99,,2013-02-05 03:42:00,
2013-02-04 22:52:00,40.0,27.0,-100.00,SSW,205,0.0,1.0,60,-99.99,,,-99.99,,2013-02-05 03:52:00,
2013-02-04 23:01:00,39.0,27.0,-100.00,SSW,195,0.0,1.0,62,-99.99,,,-99.99,,2013-02-05 04:01:00,
2013-02-04 23:11:00,39.0,27.0,-100.00,SSW,195,0.0,0.0,63,-99.99,,,-99.99,,2013-02-05 04:11:00,
2013-02-04 23:22:00,39.0,27.0,-100.00,SSW,195,0.0,1.0,63,-99.99,,,-99.99,,2013-02-05 04:22:00,
2013-02-04 23:32:00,39.0,28.0,-100.00,SW,215,0.0,1.0,64,-99.99,,,-99.99,,2013-02-05 04:32:00,
2013-02-04 23:42:00,39.0,28.0,-100.00,WSW,245,0.0,1.0,66,-99.99,,,-99.99,,2013-02-05 04:42:00,
2013-02-04 23:52:00,38.0,28.0,-100.00,West,260,1.0,1.0,67,-99.99,,,-99.99,,2013-02-05 04:52:00,